Time;durP1;ratioP1;P1;durP2;ratioP2;P2;SDS_P1;SDS_P2;PMS_P1;PMS_P2;Temp;Humidity;BMP_temperature;BMP_pressure;BME280_temperature;BME280_humidity;BME280_pressure;Samples;Min_cycle;Max_cycle;Signal;HPM_P1;HPM_P2
2023/10/08 00:00:55;;;;;;;;;3.00;3.00;;;;;-143.90;100.00;74444.56;4976014;27;102530;-73
2023/10/08 00:03:22;;;;;;;;;2.00;1.00;;;;;-143.90;100.00;74485.91;4975741;27;104179;-73
2023/10/08 00:05:49;;;;;;;;;0.33;0.33;;;;;-143.90;100.00;74504.50;4977734;28;104101;-73
2023/10/08 00:08:16;;;;;;;;;1.00;0.00;;;;;-143.90;100.00;74512.78;4973639;28;102260;-73
2023/10/08 00:10:44;;;;;;;;;0.00;0.00;;;;;-143.90;100.00;74539.66;4972653;28;102390;-73
2023/10/08 00:13:12;;;;;;;;;0.00;0.00;;;;;-143.90;100.00;74543.78;4979496;28;102462;-73
2023/10/08 00:15:52;;;;;;;;;0.00;0.00;;;;;-143.90;100.00;74554.13;4970188;28;103555;-73
2023/10/08 00:18:22;;;;;;;;;0.00;0.00;;;;;-143.90;100.00;74564.44;4964841;28;102287;-73
2023/10/08 00:20:56;;;;;;;;;0.00;0.00;;;;;-143.90;100.00;74560.31;4974197;28;102462;-73
2023/10/08 00:23:26;;;;;;;;;0.00;0.00;;;;;-143.90;100.00;74578.91;4976260;28;102307;-74
2023/10/08 00:25:54;;;;;;;;;0.00;0.00;;;;;-143.90;100.00;74578.91;4976126;28;108884;-74
2023/10/08 00:28:22;;;;;;;;;0.00;0.00;;;;;-143.90;100.00;74585.13;4979159;28;102376;-74
2023/10/08 00:30:49;;;;;;;;;0.00;0.00;;;;;-143.90;100.00;74574.78;4974594;28;102505;-74
2023/10/08 00:33:16;;;;;;;;;0.00;0.00;;;;;-143.90;100.00;74589.25;4977588;28;103234;-74
2023/10/08 00:35:43;;;;;;;;;0.00;0.00;;;;;-143.90;100.00;74589.25;4973161;28;103958;-74
2023/10/08 00:38:20;;;;;;;;;0.00;0.00;;;;;-143.90;100.00;74585.13;4949883;28;101960;-74
2023/10/08 00:40:55;;;;;;;;;0.00;0.00;;;;;-143.90;100.00;74572.72;4960867;28;103701;-74
2023/10/08 00:43:33;;;;;;;;;0.00;0.00;;;;;-143.90;100.00;74581.00;4971321;27;102610;-74
2023/10/08 00:46:18;;;;;;;;;0.00;0.00;;;;;-143.90;100.00;74591.31;4969121;27;108552;-74
2023/10/08 00:48:46;;;;;;;;;0.00;0.00;;;;;-143.90;100.00;74585.13;4967159;28;102408;-74
2023/10/08 00:53:57;;;;;;;;;0.00;0.00;;;;;-143.90;100.00;74589.25;4971063;28;102014;-74
2023/10/08 00:59:41;;;;;;;;;0.00;0.00;;;;;-143.90;100.00;74597.53;4953578;28;102714;-74
2023/10/08 01:02:14;;;;;;;;;0.00;0.00;;;;;-143.90;100.00;74597.53;4958919;28;103910;-75
2023/10/08 01:04:44;;;;;;;;;0.00;0.00;;;;;-143.90;100.00;74609.94;4969216;28;102303;-75
2023/10/08 01:07:13;;;;;;;;;0.00;0.00;;;;;-143.90;100.00;74630.59;4973904;28;103959;-74
2023/10/08 01:09:42;;;;;;;;;0.00;0.00;;;;;-143.90;100.00;74634.72;4973516;28;102354;-74
2023/10/08 01:12:12;;;;;;;;;0.00;0.00;;;;;-143.90;100.00;74638.88;4978319;27;102643;-76
2023/10/08 01:14:42;;;;;;;;;0.00;0.00;;;;;-143.90;100.00;74645.06;4980645;28;102327;-76
2023/10/08 01:17:14;;;;;;;;;0.00;0.00;;;;;-143.90;100.00;74663.66;4980033;28;104253;-76
2023/10/08 01:19:45;;;;;;;;;0.00;0.00;;;;;-143.90;100.00;74671.94;4975420;28;102594;-76
2023/10/08 01:22:17;;;;;;;;;0.00;0.00;;;;;-143.90;100.00;74692.63;4974353;27;102448;-76
2023/10/08 01:24:48;;;;;;;;;0.00;0.00;;;;;-143.90;100.00;74705.00;4973222;27;104434;-75
2023/10/08 01:27:27;;;;;;;;;0.00;0.00;;;;;-143.90;100.00;74707.09;4956460;28;104323;-76
2023/10/08 01:29:53;;;;;;;;;0.00;0.00;;;;;-143.90;100.00;74727.75;4972040;27;103003;-75
2023/10/08 01:32:23;;;;;;;;;0.00;0.00;;;;;-143.90;100.00;74744.28;4972433;27;101962;-75
2023/10/08 01:34:49;;;;;;;;;1.00;0.00;;;;;-143.90;100.00;74752.56;4977563;28;102321;-75
2023/10/08 01:37:17;;;;;;;;;0.25;0.25;;;;;-143.90;100.00;74781.50;4974391;28;104598;-75
2023/10/08 01:39:50;;;;;;;;;0.00;0.00;;;;;-143.90;100.00;74812.50;4977602;27;102171;-75
2023/10/08 01:42:21;;;;;;;;;0.00;0.00;;;;;-143.90;100.00;74839.38;4971534;27;102309;-75
2023/10/08 01:44:49;;;;;;;;;0.00;0.00;;;;;-143.90;100.00;74837.31;4974834;27;102879;-75
2023/10/08 01:47:16;;;;;;;;;0.00;0.00;;;;;-143.90;100.00;74845.59;4977899;27;104180;-75
2023/10/08 01:49:45;;;;;;;;;0.00;0.00;;;;;-143.90;100.00;74849.72;4977835;27;103068;-75
2023/10/08 01:52:21;;;;;;;;;0.00;0.00;;;;;-143.90;100.00;74853.84;4982140;28;103640;-75
2023/10/08 01:54:48;;;;;;;;;0.00;0.00;;;;;-143.90;100.00;74864.19;4956878;28;102538;-75
2023/10/08 01:57:16;;;;;;;;;0.00;0.00;;;;;-143.90;100.00;74880.72;4978952;28;104007;-74
2023/10/08 01:59:44;;;;;;;;;0.00;0.00;;;;;-143.90;100.00;74889.00;4978301;28;102486;-75
2023/10/08 02:02:12;;;;;;;;;2.00;2.00;;;;;-143.90;100.00;74895.19;4977734;28;102504;-74
2023/10/08 02:04:39;;;;;;;;;2.00;1.00;;;;;-143.90;100.00;74901.41;4979483;28;102868;-75
2023/10/08 02:07:12;;;;;;;;;0.75;0.75;;;;;-143.90;100.00;74907.59;4977994;28;103971;-75
2023/10/08 02:09:40;;;;;;;;;1.00;0.00;;;;;-143.90;100.00;74915.88;4979093;28;102431;-74
2023/10/08 02:12:08;;;;;;;;;1.00;1.00;;;;;-143.90;100.00;74936.53;4976606;28;102739;-75
2023/10/08 02:14:35;;;;;;;;;5.00;3.50;;;;;-143.90;100.00;74946.88;4981685;28;107308;-75
2023/10/08 02:17:06;;;;;;;;;14.25;13.25;;;;;-143.90;100.00;74955.16;4975886;28;103977;-74
2023/10/08 02:19:34;;;;;;;;;2.75;2.00;;;;;-143.90;100.00;74977.88;4981790;28;102387;-74
2023/10/08 02:22:02;;;;;;;;;1.00;1.00;;;;;-143.90;100.00;74986.16;4974778;28;102303;-74
2023/10/08 02:24:30;;;;;;;;;2.25;1.00;;;;;-143.90;100.00;75006.84;4981251;27;102376;-74
2023/10/08 02:26:57;;;;;;;;;0.00;0.00;;;;;-143.90;100.00;75008.91;4976312;28;103646;-74
2023/10/08 02:29:26;;;;;;;;;1.50;0.00;;;;;-143.90;100.00;74998.56;4974397;28;102359;-74
2023/10/08 02:31:53;;;;;;;;;0.00;0.00;;;;;-143.90;100.00;75000.63;4978365;28;102458;-74
2023/10/08 02:34:21;;;;;;;;;0.00;0.00;;;;;-143.90;100.00;74998.56;4975770;28;102515;-74
2023/10/08 02:36:48;;;;;;;;;0.00;0.00;;;;;-143.90;100.00;75008.91;4983265;28;104135;-74
2023/10/08 02:39:39;;;;;;;;;1.00;0.00;;;;;-143.90;100.00;75002.69;4974080;28;102538;-74
2023/10/08 02:42:02;;;;;;;;;0.00;0.00;;;;;-143.90;100.00;75027.50;4981152;28;102349;-74
2023/10/08 02:44:28;;;;;;;;;0.00;0.00;;;;;-143.90;100.00;75039.91;4969529;28;102444;-73
2023/10/08 02:46:55;;;;;;;;;0.00;0.00;;;;;-143.90;100.00;75056.44;4967521;28;103981;-74
2023/10/08 02:49:24;;;;;;;;;0.00;0.00;;;;;-143.90;100.00;75054.38;4978746;28;102455;-73
2023/10/08 02:51:53;;;;;;;;;0.00;0.00;;;;;-143.90;100.00;75060.59;4977225;28;102502;-75
2023/10/08 02:54:31;;;;;;;;;0.00;0.00;;;;;-143.90;100.00;75068.84;4978797;28;102521;-74
2023/10/08 02:57:03;;;;;;;;;0.00;0.00;;;;;-143.90;100.00;75068.84;4970799;27;108731;-74
2023/10/08 02:59:40;;;;;;;;;0.00;0.00;;;;;-143.90;100.00;75079.19;4974652;28;102388;-74
2023/10/08 03:02:18;;;;;;;;;0.00;0.00;;;;;-143.90;100.00;75089.53;4973784;28;103648;-73
2023/10/08 03:04:46;;;;;;;;;0.75;0.00;;;;;-143.90;100.00;75093.66;4983503;28;102459;-73
2023/10/08 03:07:33;;;;;;;;;0.00;0.00;;;;;-143.90;100.00;75101.94;4972894;28;104439;-73
2023/10/08 03:10:18;;;;;;;;;0.00;0.00;;;;;-143.90;100.00;75095.72;4976024;28;102538;-73
2023/10/08 03:12:46;;;;;;;;;0.00;0.00;;;;;-143.90;100.00;75093.66;4975746;28;102140;-73
2023/10/08 03:15:28;;;;;;;;;0.00;0.00;;;;;-143.90;100.00;75104.00;4982163;28;102649;-73
2023/10/08 03:17:57;;;;;;;;;0.00;0.00;;;;;-143.90;100.00;75104.00;4973993;28;109073;-75
2023/10/08 03:20:43;;;;;;;;;0.00;0.00;;;;;-143.90;100.00;75106.06;4976327;28;102183;-73
2023/10/08 03:23:30;;;;;;;;;0.00;0.00;;;;;-143.90;100.00;75118.47;4976894;28;102367;-73
2023/10/08 03:26:33;;;;;;;;;0.00;0.00;;;;;-143.90;100.00;75120.53;4978075;28;102857;-76
2023/10/08 03:28:44;;;;;;;;;0.00;0.00;;;;;-143.90;100.00;75135.00;4973562;28;104003;-73
2023/10/08 03:31:16;;;;;;;;;0.00;0.00;;;;;-143.90;100.00;75145.34;4978012;28;102314;-73
2023/10/08 03:33:48;;;;;;;;;0.00;0.00;;;;;-143.90;100.00;75153.63;4976993;28;102222;-74
2023/10/08 03:36:33;;;;;;;;;0.00;0.00;;;;;-143.90;100.00;75174.28;4977610;28;102635;-73
2023/10/08 03:39:12;;;;;;;;;0.00;0.00;;;;;-143.90;100.00;75197.03;4973255;28;108817;-74
2023/10/08 03:41:41;;;;;;;;;0.00;0.00;;;;;-143.90;100.00;75197.03;4975441;28;102357;-74
2023/10/08 03:44:14;;;;;;;;;0.00;0.00;;;;;-143.90;100.00;75199.09;4980180;28;103415;-74
2023/10/08 03:46:43;;;;;;;;;0.00;0.00;;;;;-143.90;100.00;75201.16;4977721;28;102818;-74
2023/10/08 03:51:52;;;;;;;;;0.00;0.00;;;;;-143.90;100.00;75203.22;4975475;28;102318;-73
2023/10/08 03:54:35;;;;;;;;;0.00;0.00;;;;;-143.90;100.00;75205.28;4980866;28;102401;-74
2023/10/08 03:57:13;;;;;;;;;0.00;0.00;;;;;-143.90;100.00;75221.84;4976327;28;102104;-74
2023/10/08 03:59:41;;;;;;;;;0.00;0.00;;;;;-143.90;100.00;75234.25;4976797;27;104182;-74
2023/10/08 04:02:15;;;;;;;;;0.00;0.00;;;;;-143.90;100.00;75236.31;4976900;28;102335;-74
2023/10/08 04:04:52;;;;;;;;;0.00;0.00;;;;;-143.90;100.00;75234.25;4976776;28;102360;-73
2023/10/08 04:07:28;;;;;;;;;0.00;0.00;;;;;-143.90;100.00;75252.84;4974454;28;102510;-76
2023/10/08 04:12:43;;;;;;;;;0.00;0.00;;;;;-143.90;100.00;75273.53;4976894;28;102580;-75
2023/10/08 04:15:16;;;;;;;;;0.00;0.00;;;;;-143.90;100.00;75275.59;4950270;28;102136;-74
2023/10/08 04:17:44;;;;;;;;;1.00;0.00;;;;;-143.90;100.00;75288.00;4981063;28;103100;-76
2023/10/08 04:20:30;;;;;;;;;0.00;0.00;;;;;-143.90;100.00;75304.53;4972677;27;103979;-74
2023/10/08 04:23:01;;;;;;;;;0.00;0.00;;;;;-143.90;100.00;75312.81;4977395;28;102427;-77
2023/10/08 04:25:32;;;;;;;;;0.00;0.00;;;;;-143.90;100.00;75325.22;4973915;27;101963;-76
2023/10/08 04:28:00;;;;;;;;;0.00;0.00;;;;;-143.90;100.00;75312.81;4984499;28;102433;-75
2023/10/08 04:30:32;;;;;;;;;0.00;0.00;;;;;-143.90;100.00;75327.28;4974405;28;104020;-75
2023/10/08 04:33:06;;;;;;;;;0.25;0.00;;;;;-143.90;100.00;75312.81;4976796;28;102475;-75
2023/10/08 04:35:37;;;;;;;;;0.00;0.00;;;;;-143.90;100.00;75314.88;4974361;28;102453;-75
2023/10/08 04:38:08;;;;;;;;;0.00;0.00;;;;;-143.90;100.00;75310.75;4981231;28;102457;-75
2023/10/08 04:40:47;;;;;;;;;0.00;0.00;;;;;-143.90;100.00;75321.06;4976770;28;103973;-75
2023/10/08 04:43:15;;;;;;;;;0.00;0.00;;;;;-143.90;100.00;75316.94;4975144;28;102802;-75
2023/10/08 04:45:43;;;;;;;;;0.00;0.00;;;;;-143.90;100.00;75327.28;4978058;28;102060;-75
2023/10/08 04:48:09;;;;;;;;;0.00;0.00;;;;;-143.90;100.00;75327.28;4980024;28;102266;-75
2023/10/08 04:50:37;;;;;;;;;0.00;0.00;;;;;-143.90;100.00;75343.81;4981311;28;103904;-75
2023/10/08 04:53:07;;;;;;;;;1.00;0.00;;;;;-143.90;100.00;75366.56;4979150;28;102211;-75
2023/10/08 04:55:35;;;;;;;;;0.00;0.00;;;;;-143.90;100.00;75364.50;4984348;28;102338;-75
2023/10/08 04:58:12;;;;;;;;;1.00;0.00;;;;;-143.90;100.00;75358.28;4983181;27;102298;-75
2023/10/08 05:00:44;;;;;;;;;0.00;0.00;;;;;-143.90;100.00;75354.16;4984587;27;103980;-75
2023/10/08 05:03:14;;;;;;;;;0.00;0.00;;;;;-143.90;100.00;75385.16;4977672;28;102394;-75
2023/10/08 05:05:55;;;;;;;;;0.00;0.00;;;;;-143.90;100.00;75399.63;4978269;28;102447;-75
2023/10/08 05:08:32;;;;;;;;;0.00;0.00;;;;;-143.90;100.00;75401.72;4977680;28;102203;-75
2023/10/08 05:11:15;;;;;;;;;0.00;0.00;;;;;-143.90;100.00;75407.91;4973889;28;111512;-77
2023/10/08 05:16:48;;;;;;;;;0.00;0.00;;;;;-143.90;100.00;75416.19;4907217;28;102793;-75
2023/10/08 05:22:17;;;;;;;;;0.25;0.00;;;;;-143.90;100.00;75412.03;4976400;28;108758;-75
2023/10/08 05:38:16;;;;;;;;;0.00;0.00;;;;;-143.90;100.00;75451.31;4974647;28;102396;-75
2023/10/08 05:55:10;;;;;;;;;0.25;0.00;;;;;-143.90;100.00;75490.63;4975514;28;104252;-75
2023/10/08 05:59:52;;;;;;;;;0.00;0.00;;;;;-143.90;100.00;75482.34;4977837;28;101955;-75
2023/10/08 06:05:22;;;;;;;;;1.00;1.00;;;;;-143.90;100.00;75498.88;4975397;28;108414;-76
2023/10/08 06:13:43;;;;;;;;;0.25;0.25;;;;;-143.90;100.00;75492.69;4979291;28;102069;-75
2023/10/08 06:16:13;;;;;;;;;0.00;0.00;;;;;-143.90;100.00;75494.75;4976472;28;108976;-76
2023/10/08 06:18:39;;;;;;;;;0.25;0.00;;;;;-143.90;100.00;75507.16;4978260;28;102484;-75
2023/10/08 06:21:08;;;;;;;;;1.25;0.00;;;;;-143.90;100.00;75507.16;4986320;27;102333;-75
2023/10/08 06:23:37;;;;;;;;;1.25;0.00;;;;;-143.90;100.00;75511.28;4982549;27;103878;-75
2023/10/08 06:28:38;;;;;;;;;0.00;0.00;;;;;-143.90;100.00;75527.81;4976232;28;102498;-76
2023/10/08 06:31:11;;;;;;;;;0.00;0.00;;;;;-143.90;100.00;75527.81;4976294;28;103845;-75
2023/10/08 06:33:40;;;;;;;;;0.00;0.00;;;;;-143.90;100.00;75525.75;4980220;28;102390;-74
2023/10/08 06:38:40;;;;;;;;;0.00;0.00;;;;;-143.90;100.00;75511.28;4976666;28;102474;-74
2023/10/08 06:44:02;;;;;;;;;0.00;0.00;;;;;-143.90;100.00;75538.16;4971991;28;102471;-74
2023/10/08 06:46:34;;;;;;;;;0.75;0.75;;;;;-143.90;100.00;75529.91;4975054;28;106143;-76
2023/10/08 06:49:11;;;;;;;;;1.00;1.00;;;;;-143.90;100.00;75536.09;4975167;28;102082;-74
2023/10/08 06:51:41;;;;;;;;;0.00;0.00;;;;;-143.90;100.00;75531.97;4978419;28;102505;-75
2023/10/08 06:54:10;;;;;;;;;0.00;0.00;;;;;-143.90;100.00;75538.16;4979465;28;102173;-75
2023/10/08 06:56:37;;;;;;;;;0.00;0.00;;;;;-143.90;100.00;75538.16;4980367;28;104384;-76
2023/10/08 06:59:05;;;;;;;;;0.00;0.00;;;;;-143.90;100.00;75519.56;4978086;28;102502;-75
2023/10/08 07:01:45;;;;;;;;;0.00;0.00;;;;;-143.90;100.00;75519.56;4978439;28;102627;-74
2023/10/08 07:04:13;;;;;;;;;0.00;0.00;;;;;-143.90;100.00;75507.16;4982200;28;103723;-75
2023/10/08 07:06:42;;;;;;;;;1.00;1.00;;;;;-143.90;100.00;75511.28;4978065;28;104027;-75
2023/10/08 07:09:22;;;;;;;;;3.75;1.00;;;;;-143.90;100.00;75527.81;4962256;28;102150;-73
2023/10/08 07:11:54;;;;;;;;;1.75;1.00;;;;;-143.90;100.00;75523.69;4977923;27;103672;-74
2023/10/08 07:14:26;;;;;;;;;1.00;0.00;;;;;-143.90;100.00;75527.81;4959993;28;102192;-74
2023/10/08 07:16:58;;;;;;;;;2.00;1.00;;;;;-143.90;100.00;75565.03;4954537;28;108860;-74
2023/10/08 07:19:37;;;;;;;;;2.00;1.00;;;;;-143.90;100.00;75548.50;4959531;28;102505;-76
2023/10/08 07:22:28;;;;;;;;;1.75;1.00;;;;;-143.90;100.00;75550.56;4951848;28;102722;-75
2023/10/08 07:24:52;;;;;;;;;0.00;0.00;;;;;-143.90;100.00;75550.56;4961638;28;102297;-74
2023/10/08 07:27:29;;;;;;;;;0.75;0.25;;;;;-143.90;100.00;75567.13;4956605;28;104115;-75
2023/10/08 07:29:59;;;;;;;;;0.25;0.25;;;;;-143.90;100.00;75565.03;4958593;28;102511;-75
2023/10/08 07:32:25;;;;;;;;;2.00;0.00;;;;;-143.90;100.00;75560.91;4960236;28;102053;-75
2023/10/08 07:35:11;;;;;;;;;0.00;0.00;;;;;-143.90;100.00;75560.91;4958488;28;102240;-75
2023/10/08 07:37:38;;;;;;;;;0.00;0.00;;;;;-143.90;100.00;75556.78;4960596;28;108795;-74
2023/10/08 07:40:09;;;;;;;;;2.75;1.00;;;;;-143.90;100.00;75569.19;4955837;28;102497;-74
2023/10/08 07:42:36;;;;;;;;;3.00;1.25;;;;;-143.90;100.00;75587.78;4963818;28;102201;-73
2023/10/08 07:45:04;;;;;;;;;3.00;2.25;;;;;-143.90;100.00;75596.06;4954910;28;102376;-75
2023/10/08 07:47:31;;;;;;;;;0.75;0.50;;;;;-143.90;100.00;75581.59;4957787;28;103757;-74
2023/10/08 07:49:58;;;;;;;;;3.25;1.75;;;;;-143.90;100.00;75571.25;4956149;28;102484;-73
2023/10/08 07:52:25;;;;;;;;;4.25;2.75;;;;;-143.90;100.00;75581.59;4957278;28;102552;-75
2023/10/08 07:54:53;;;;;;;;;4.00;2.00;;;;;-143.90;100.00;75585.72;4961019;28;102772;-73
2023/10/08 07:57:26;;;;;;;;;1.00;1.00;;;;;-143.90;100.00;75571.25;4953024;28;104165;-73
2023/10/08 08:00:01;;;;;;;;;2.75;1.25;;;;;-143.90;100.00;75579.53;4958763;28;103339;-73
2023/10/08 08:02:28;;;;;;;;;1.00;1.00;;;;;-143.90;100.00;75596.06;4956388;28;102227;-72
2023/10/08 08:04:54;;;;;;;;;1.00;1.00;;;;;-143.90;100.00;75594.00;4962116;28;103034;-72
2023/10/08 08:07:21;;;;;;;;;1.00;1.00;;;;;-143.90;100.00;75585.72;4959263;28;108961;-73
2023/10/08 08:09:58;;;;;;;;;2.00;2.00;;;;;-143.90;100.00;75602.25;4958739;28;102021;-73
2023/10/08 08:12:28;;;;;;;;;2.75;2.00;;;;;-143.90;100.00;75585.72;4956109;28;102359;-73
2023/10/08 08:14:55;;;;;;;;;2.00;1.00;;;;;-143.90;100.00;75577.44;4959839;28;102404;-73
2023/10/08 08:17:25;;;;;;;;;2.00;2.00;;;;;-143.90;100.00;75560.91;4953277;28;109265;-75
2023/10/08 08:19:52;;;;;;;;;1.25;1.25;;;;;-143.90;100.00;75552.63;4957456;28;102443;-77
2023/10/08 08:22:22;;;;;;;;;1.00;1.00;;;;;-143.90;100.00;75534.03;4967077;28;102432;-75
2023/10/08 08:25:15;;;;;;;;;3.00;2.00;;;;;-143.90;100.00;75542.31;4957807;28;102341;-73
2023/10/08 08:27:48;;;;;;;;;2.00;1.00;;;;;-143.90;100.00;75507.16;4959507;28;108627;-75
2023/10/08 08:30:15;;;;;;;;;2.00;2.00;;;;;-143.90;100.00;75486.47;4958033;28;102266;-74
2023/10/08 08:32:47;;;;;;;;;2.25;2.25;;;;;-143.90;100.00;75480.28;4962446;28;103476;-73
2023/10/08 08:35:19;;;;;;;;;2.00;1.00;;;;;-143.90;99.53;75472.00;4966164;28;102579;-74
2023/10/08 08:37:49;;;;;;;;;1.00;1.00;;;;;-143.90;99.02;75469.94;4959784;28;103874;-74
2023/10/08 08:40:18;;;;;;;;;2.00;2.00;;;;;-143.90;99.30;75453.41;4958522;28;102419;-75
2023/10/08 08:42:47;;;;;;;;;2.00;0.25;;;;;-143.90;100.00;75455.47;4960361;28;102865;-74
2023/10/08 08:45:20;;;;;;;;;2.00;1.25;;;;;-143.90;97.59;75461.66;4962801;28;102285;-74
2023/10/08 08:47:47;;;;;;;;;1.25;1.25;;;;;-143.90;95.32;75465.81;4960793;28;103897;-74
2023/10/08 08:50:14;;;;;;;;;3.00;3.00;;;;;-143.90;95.66;75455.47;4967028;28;102022;-74
2023/10/08 08:52:42;;;;;;;;;2.75;2.75;;;;;-143.90;94.49;75474.06;4962161;28;102281;-73
2023/10/08 08:55:16;;;;;;;;;2.25;2.00;;;;;-143.90;94.78;75494.75;4966421;28;102409;-74
2023/10/08 08:57:48;;;;;;;;;2.00;2.00;;;;;-143.90;95.67;75486.47;4957733;28;104023;-72
2023/10/08 09:00:16;;;;;;;;;1.50;1.50;;;;;-143.90;92.19;75492.69;4977020;28;102766;-74
2023/10/08 09:02:49;;;;;;;;;5.75;4.00;;;;;-143.90;92.94;75490.63;4957752;28;102133;-72
2023/10/08 09:05:25;;;;;;;;;2.00;2.00;;;;;-143.90;92.96;75478.22;4959342;28;101996;-72
2023/10/08 09:08:02;;;;;;;;;2.00;2.00;;;;;-143.90;94.79;75461.66;4961084;28;109023;-72
2023/10/08 09:10:36;;;;;;;;;3.00;3.00;;;;;-143.90;94.65;75472.00;4960300;28;102429;-73
2023/10/08 09:13:09;;;;;;;;;3.00;3.00;;;;;-143.90;92.24;75474.06;4957473;28;102502;-73
2023/10/08 09:15:39;;;;;;;;;2.00;2.00;;;;;-143.90;82.29;75465.81;4958882;28;102934;-72
2023/10/08 09:18:06;;;;;;;;;1.25;1.25;;;;;-143.90;79.56;75463.72;4959835;28;103798;-74
2023/10/08 09:20:43;;;;;;;;;2.00;1.00;;;;;-143.90;78.77;75432.72;4958151;28;102443;-74
2023/10/08 09:23:17;;;;;;;;;1.00;1.00;;;;;-143.90;79.26;75401.72;4969404;28;102102;-74
2023/10/08 09:25:45;;;;;;;;;1.50;1.00;;;;;-143.90;79.01;75378.97;4957327;28;102654;-72
2023/10/08 09:28:15;;;;;;;;;1.00;1.00;;;;;-143.90;75.01;75383.09;4953077;28;104977;-72
2023/10/08 09:30:44;;;;;;;;;1.00;1.00;;;;;-143.90;71.26;75405.84;4956878;28;102560;-73
2023/10/08 09:33:12;;;;;;;;;1.25;1.25;;;;;-143.90;76.13;75430.66;4962655;28;106175;-73
2023/10/08 09:35:40;;;;;;;;;3.00;3.00;;;;;-143.90;76.80;75455.47;4961549;28;102470;-73
2023/10/08 09:38:11;;;;;;;;;2.00;2.00;;;;;-143.90;79.70;75482.34;4953551;28;104280;-73
2023/10/08 09:40:44;;;;;;;;;1.75;1.00;;;;;-143.90;78.67;75494.75;4958068;28;102247;-72
2023/10/08 09:43:12;;;;;;;;;1.00;1.00;;;;;-143.90;77.66;75534.03;4956723;28;101996;-73
2023/10/08 09:45:43;;;;;;;;;2.50;2.00;;;;;-143.90;76.38;75562.97;4961616;28;102421;-74
2023/10/08 09:48:12;;;;;;;;;2.00;2.00;;;;;-143.90;78.68;75556.78;4960695;28;104298;-72
2023/10/08 09:50:41;;;;;;;;;3.75;2.50;;;;;-143.90;78.66;75525.75;4957806;28;103732;-72
2023/10/08 09:53:22;;;;;;;;;1.75;1.75;;;;;-143.90;70.22;75513.34;4957586;28;102879;-72
2023/10/08 09:55:54;;;;;;;;;2.50;2.50;;;;;-143.90;64.47;75494.75;4961242;28;103586;-73
2023/10/08 09:58:27;;;;;;;;;2.25;2.00;;;;;-143.90;64.94;75480.28;4959561;28;104107;-72
2023/10/08 10:00:56;;;;;;;;;2.00;2.00;;;;;-143.90;63.75;75451.31;4961500;28;102297;-72
2023/10/08 10:03:25;;;;;;;;;1.00;1.00;;;;;-143.90;55.89;75438.94;4954717;28;102421;-71
2023/10/08 10:05:58;;;;;;;;;2.00;1.25;;;;;-143.90;62.23;75424.44;4961523;28;103267;-72
2023/10/08 10:08:27;;;;;;;;;1.25;1.00;;;;;-143.90;59.54;75405.84;4959866;28;108796;-72
2023/10/08 10:11:00;;;;;;;;;1.50;1.00;;;;;-143.90;55.29;75416.19;4956130;28;103675;-73
2023/10/08 10:13:39;;;;;;;;;2.00;2.00;;;;;-143.90;52.80;75407.91;4962977;28;103738;-73
2023/10/08 10:16:09;;;;;;;;;1.00;1.00;;;;;-143.90;51.23;75416.19;4955014;28;102471;-73
2023/10/08 10:18:36;;;;;;;;;0.50;0.50;;;;;-143.90;53.62;75401.72;4959679;28;104091;-73
2023/10/08 10:21:12;;;;;;;;;2.00;1.00;;;;;-143.90;51.60;75399.63;4958125;28;102425;-73
2023/10/08 10:23:44;;;;;;;;;0.00;0.00;;;;;-143.90;51.98;75391.38;4962194;28;102131;-75
2023/10/08 10:26:25;;;;;;;;;1.00;1.00;;;;;-143.90;53.07;75391.38;4957766;28;103086;-73
2023/10/08 10:29:10;;;;;;;;;1.25;1.00;;;;;-143.90;52.15;75401.72;4953905;28;103960;-74
2023/10/08 10:31:56;;;;;;;;;1.00;1.00;;;;;-143.90;52.35;75420.31;4958994;28;102483;-73
2023/10/08 10:34:27;;;;;;;;;2.00;1.00;;;;;-143.90;52.17;75409.97;4958684;28;101888;-73
2023/10/08 10:37:08;;;;;;;;;0.00;0.00;;;;;-143.90;53.96;75397.56;4962803;28;102665;-73
2023/10/08 10:39:39;;;;;;;;;0.00;0.00;;;;;-143.90;51.40;75393.44;4955596;28;108789;-74
2023/10/08 10:42:18;;;;;;;;;1.00;0.25;;;;;-143.90;51.51;75399.63;4959048;28;102452;-73
2023/10/08 10:44:49;;;;;;;;;1.00;1.00;;;;;-143.90;48.55;75409.97;4956172;28;102264;-75
2023/10/08 10:52:32;;;;;;;;;0.00;0.00;;;;;-143.90;46.95;75407.91;4963427;28;102234;-75
2023/10/08 10:55:17;;;;;;;;;0.25;0.25;;;;;-143.90;47.82;75416.19;4954445;28;102276;-73
2023/10/08 10:57:56;;;;;;;;;0.00;0.00;;;;;-143.90;47.28;75414.13;4962784;28;102252;-73
2023/10/08 11:03:15;;;;;;;;;1.00;0.00;;;;;-143.90;48.40;75412.03;4952782;28;102022;-73
2023/10/08 11:05:51;;;;;;;;;1.00;0.50;;;;;-143.90;48.60;75395.50;4952905;28;102293;-74
2023/10/08 11:08:18;;;;;;;;;0.00;0.00;;;;;-143.90;48.61;75381.03;4962037;28;103819;-74
2023/10/08 11:10:50;;;;;;;;;1.00;1.00;;;;;-143.90;43.27;75420.31;4961525;28;104120;-75
2023/10/08 11:13:19;;;;;;;;;2.00;1.50;;;;;-143.90;44.56;75432.72;4959188;28;102287;-73
2023/10/08 11:15:51;;;;;;;;;2.50;2.50;;;;;-143.90;43.57;75445.13;4958680;28;103186;-74
2023/10/08 11:18:23;;;;;;;;;1.00;1.00;;;;;-143.90;41.85;75478.22;4958329;28;102220;-77
2023/10/08 11:21:00;;;;;;;;;0.00;0.00;;;;;-143.90;41.80;75478.22;4957025;28;104048;-74
2023/10/08 11:23:55;;;;;;;;;1.00;1.00;;;;;-143.90;39.90;75507.16;4950888;28;102116;-76
2023/10/08 11:26:31;;;;;;;;;1.00;0.75;;;;;-143.90;39.55;75503.03;4955195;28;102016;-76
2023/10/08 11:29:03;;;;;;;;;1.00;1.00;;;;;-143.90;39.18;75523.69;4953427;28;102522;-73
2023/10/08 11:31:33;;;;;;;;;1.00;1.00;;;;;-143.90;40.60;75490.63;4955652;28;108633;-72
2023/10/08 11:34:09;;;;;;;;;1.00;1.00;;;;;-143.90;41.95;75500.94;4957695;28;102986;-74
2023/10/08 11:36:48;;;;;;;;;2.00;1.00;;;;;-143.90;40.77;75503.03;4952284;28;102585;-74
2023/10/08 11:39:30;;;;;;;;;0.00;0.00;;;;;-143.90;40.76;75503.03;4954479;28;102572;-75
2023/10/08 11:42:16;;;;;;;;;1.75;1.00;;;;;-143.90;41.23;75494.75;4952355;28;106372;-72
2023/10/08 11:44:43;;;;;;;;;1.00;1.00;;;;;-143.90;42.17;75469.94;4953988;28;102172;-73
2023/10/08 11:47:20;;;;;;;;;2.00;2.00;;;;;-143.90;42.68;75455.47;4949644;28;102076;-73
2023/10/08 11:49:50;;;;;;;;;1.00;1.00;;;;;-143.90;42.72;75436.84;4955619;28;102500;-73
2023/10/08 11:52:21;;;;;;;;;0.00;0.00;;;;;-143.90;43.87;75426.50;4958451;28;104059;-73
2023/10/08 11:54:51;;;;;;;;;2.00;0.50;;;;;-143.90;43.65;75445.13;4953606;28;102639;-72
2023/10/08 11:57:21;;;;;;;;;1.75;1.75;;;;;-143.90;46.37;75441.00;4950575;28;102436;-73
2023/10/08 11:59:52;;;;;;;;;1.00;1.00;;;;;-143.90;46.01;75420.31;4959115;28;102550;-72
2023/10/08 12:02:20;;;;;;;;;0.00;0.00;;;;;-143.90;44.00;75405.84;4950921;28;104086;-71
2023/10/08 12:04:47;;;;;;;;;1.00;0.00;;;;;-143.90;44.69;75414.13;4957537;28;102258;-72
2023/10/08 12:07:17;;;;;;;;;1.25;1.25;;;;;-143.90;40.53;75453.41;4947738;28;102989;-71
2023/10/08 12:09:48;;;;;;;;;1.00;0.50;;;;;-143.90;41.43;75461.66;4956386;28;102012;-71
2023/10/08 12:12:16;;;;;;;;;1.00;1.00;;;;;-143.90;44.44;75511.28;4948383;28;104165;-72
2023/10/08 12:14:45;;;;;;;;;1.00;1.00;;;;;-143.90;43.20;75531.97;4949576;28;103324;-72
2023/10/08 12:17:12;;;;;;;;;0.00;0.00;;;;;-143.90;42.29;75538.16;4951279;28;102279;-72
2023/10/08 12:19:42;;;;;;;;;0.00;0.00;;;;;-143.90;44.15;75531.97;4943726;28;102410;-72
2023/10/08 12:22:14;;;;;;;;;0.25;0.25;;;;;-143.90;44.19;75523.69;4952304;28;104132;-72
2023/10/08 12:24:42;;;;;;;;;0.00;0.00;;;;;-143.90;43.04;75513.34;4953237;28;102265;-72
2023/10/08 12:27:11;;;;;;;;;1.00;1.00;;;;;-143.90;42.84;75507.16;4954578;28;102421;-73
2023/10/08 12:29:39;;;;;;;;;0.00;0.00;;;;;-143.90;42.47;75488.53;4956602;28;102113;-72
2023/10/08 12:32:16;;;;;;;;;0.00;0.00;;;;;-143.90;41.19;75482.34;4951155;28;104231;-73
2023/10/08 12:34:44;;;;;;;;;0.00;0.00;;;;;-143.90;43.06;75474.06;4951029;28;102234;-71
2023/10/08 12:37:14;;;;;;;;;0.00;0.00;;;;;-143.90;39.36;75478.22;4950059;28;102065;-71